Puget — AEQW — position and weather

sailwx.info

Track history (hours):
 
Tides and Currents Weather Stations Pressure Air Temp Water Temp Dewpoint Dewpoint Depression Visibility Wind Speed Wind Dir Waves Ship Positions

Puget

Last reported at 2017-May-25 22:49 UTC. Time now 2017-May-28 20:21 UTC.
Position N 47°40' W 122°24'.

Length 20 m; draft 0.2 m.

Type: Ship. MMSI: 369970510.

Date/timePositionNaut miles runAvg speedWind from/ knotsBaromVisibWave heightAir tempDewpointWater temp
2017-May-25 22:49N 47°40' W 122°24'0 0.6
2017-May-25 22:30N 47°40' W 122°24'0 0.0
2017-May-25 22:00N 47°40' W 122°24'0 0.2
2017-May-25 21:30N 47°40' W 122°24'2 3.1
2017-May-25 21:00N 47°41' W 122°26'0 0.8
2017-May-25 20:30N 47°40' W 122°26'4 7.0
2017-May-25 20:00N 47°37' W 122°27'4 8.0
2017-May-25 19:30N 47°33' W 122°25'4 7.2
2017-May-25 19:00N 47°30' W 122°24'3 6.7
2017-May-25 18:30N 47°26' W 122°23'2 4.0
2017-May-25 18:00N 47°27' W 122°25'4 8.6
2017-May-25 17:30N 47°31' W 122°27'4 8.0
2017-May-25 17:00N 47°35' W 122°28'1 1.4
2017-May-25 16:30N 47°36' W 122°29'2 4.5
2017-May-25 16:00N 47°38' W 122°28'3 6.4
2017-May-25 15:30N 47°41' W 122°25'1 2.2
2017-May-25 15:00N 47°40' W 122°24'0 0.0
2017-May-24 23:03N 47°40' W 122°24'0 1.0
2017-May-24 23:00N 47°40' W 122°24'0 0.3
2017-May-24 22:30N 47°40' W 122°24'4 7.5
2017-May-24 22:01N 47°44' W 122°25'5 9.5
2017-May-24 21:31N 47°48' W 122°24'4 8.5
2017-May-24 21:01N 47°52' W 122°23'4 8.1
2017-May-24 20:31N 47°56' W 122°21'4 7.4
2017-May-24 19:59N 48°00' W 122°21'5 5.8
2017-May-24 19:12N 48°05' W 122°22'2 6.5
2017-May-24 18:57N 48°06' W 122°23'1 1.9
2017-May-24 18:28N 48°06' W 122°22'6 9.7
2017-May-24 17:54N 48°01' W 122°18'3 7.4
2017-May-24 17:31N 47°58' W 122°19'4 7.7
2017-May-24 17:00N 47°55' W 122°21'4 7.2
2017-May-24 16:30N 47°51' W 122°23'4 7.9
2017-May-24 16:01N 47°47' W 122°25'4 8.2
2017-May-24 15:30N 47°43' W 122°25'3 6.5
2017-May-24 15:01N 47°40' W 122°24'0 0.4
2017-May-24 14:00N 47°40' W 122°24'0 0.0
2017-May-23 23:00N 47°40' W 122°24'0 0.7
2017-May-23 22:31N 47°40' W 122°24'2 4.0
2017-May-23 22:01N 47°39' W 122°27'3 6.2
2017-May-23 21:31N 47°36' W 122°26'2 3.6
2017-May-23 21:00N 47°36' W 122°23'2 4.0
2017-May-23 20:31N 47°36' W 122°21'2 4.7
2017-May-23 20:00N 47°37' W 122°24'4 7.1
2017-May-23 19:30N 47°41' W 122°25'1 2.1
2017-May-23 19:01N 47°40' W 122°24'0 0.2
2017-May-23 18:31N 47°40' W 122°24'0 0.0
2017-May-23 18:01N 47°40' W 122°24'0 0.0
2017-May-23 17:30N 47°40' W 122°24'0 0.2
2017-May-23 17:00N 47°40' W 122°24'0 0.3
2017-May-23 16:31N 47°40' W 122°24'0 0.1
2017-May-23 16:01N 47°40' W 122°24'0 0.1
2017-May-23 15:31N 47°40' W 122°24'0 0.2
2017-May-23 15:01N 47°40' W 122°24'  
Track history (hours):
 
Tides and Currents Weather Stations Pressure Air Temp Water Temp Dewpoint Dewpoint Depression Visibility Wind Speed Wind Dir Waves Ship Positions

Puget

Last reported at 2017-May-25 22:49 UTC. Time now 2017-May-28 20:22 UTC.
Position N 47°40' W 122°24'.

Length 20 m; draft 0.2 m.

Type: Ship. MMSI: 369970510.

Date/timePositionNaut miles runAvg speedWind from/ knotsBaromVisibWave heightAir tempDewpointWater temp
2017-May-25 22:49N 47°40' W 122°24'0 0.6
2017-May-25 22:30N 47°40' W 122°24'0 0.0
2017-May-25 22:00N 47°40' W 122°24'0 0.2
2017-May-25 21:30N 47°40' W 122°24'2 3.1
2017-May-25 21:00N 47°41' W 122°26'0 0.8
2017-May-25 20:30N 47°40' W 122°26'4 7.0
2017-May-25 20:00N 47°37' W 122°27'4 8.0
2017-May-25 19:30N 47°33' W 122°25'4 7.2
2017-May-25 19:00N 47°30' W 122°24'3 6.7
2017-May-25 18:30N 47°26' W 122°23'2 4.0
2017-May-25 18:00N 47°27' W 122°25'4 8.6
2017-May-25 17:30N 47°31' W 122°27'4 8.0
2017-May-25 17:00N 47°35' W 122°28'1 1.4
2017-May-25 16:30N 47°36' W 122°29'2 4.5
2017-May-25 16:00N 47°38' W 122°28'3 6.4
2017-May-25 15:30N 47°41' W 122°25'1 2.2
2017-May-25 15:00N 47°40' W 122°24'0 0.0
2017-May-24 23:03N 47°40' W 122°24'0 1.0
2017-May-24 23:00N 47°40' W 122°24'0 0.3
2017-May-24 22:30N 47°40' W 122°24'4 7.5
2017-May-24 22:01N 47°44' W 122°25'5 9.5
2017-May-24 21:31N 47°48' W 122°24'4 8.5
2017-May-24 21:01N 47°52' W 122°23'4 8.1
2017-May-24 20:31N 47°56' W 122°21'4 7.4
2017-May-24 19:59N 48°00' W 122°21'5 5.8
2017-May-24 19:12N 48°05' W 122°22'2 6.5
2017-May-24 18:57N 48°06' W 122°23'1 1.9
2017-May-24 18:28N 48°06' W 122°22'6 9.7
2017-May-24 17:54N 48°01' W 122°18'3 7.4
2017-May-24 17:31N 47°58' W 122°19'4 7.7
2017-May-24 17:00N 47°55' W 122°21'4 7.2
2017-May-24 16:30N 47°51' W 122°23'4 7.9
2017-May-24 16:01N 47°47' W 122°25'4 8.2
2017-May-24 15:30N 47°43' W 122°25'3 6.5
2017-May-24 15:01N 47°40' W 122°24'0 0.4
2017-May-24 14:00N 47°40' W 122°24'0 0.0
2017-May-23 23:00N 47°40' W 122°24'0 0.7
2017-May-23 22:31N 47°40' W 122°24'2 4.0
2017-May-23 22:01N 47°39' W 122°27'3 6.2
2017-May-23 21:31N 47°36' W 122°26'2 3.6
2017-May-23 21:00N 47°36' W 122°23'2 4.0
2017-May-23 20:31N 47°36' W 122°21'2 4.7
2017-May-23 20:00N 47°37' W 122°24'4 7.1
2017-May-23 19:30N 47°41' W 122°25'1 2.1
2017-May-23 19:01N 47°40' W 122°24'0 0.2
2017-May-23 18:31N 47°40' W 122°24'0 0.0
2017-May-23 18:01N 47°40' W 122°24'0 0.0
2017-May-23 17:30N 47°40' W 122°24'0 0.2
2017-May-23 17:00N 47°40' W 122°24'0 0.3
2017-May-23 16:31N 47°40' W 122°24'0 0.1
2017-May-23 16:01N 47°40' W 122°24'0 0.1
2017-May-23 15:31N 47°40' W 122°24'0 0.2
2017-May-23 15:01N 47°40' W 122°24'  

Dump ship's entire track history